Observation data for Denver City on 10/31/2020      Previous  Date  Next       Current Mesonet Observations  Soil Data  Daily Summary Page  Observations in Plain Language
KDVS 310500Z 18006KT 09/01 A3017 RMK A01 T00910012  RH  058%=      5-min Rain = 0
KDVS 310505Z 18007KT 09/01 A3017 RMK A01 T00900011  RH  059%=      5-min Rain = 0
KDVS 310510Z 18007KT 09/01 A3017 RMK A01 T00890011  RH  059%=      5-min Rain = 0
KDVS 310515Z 18008KT 09/01 A3017 RMK A01 T00900012  RH  059%=      5-min Rain = 0
KDVS 310520Z 18008KT 09/01 A3017 RMK A01 T00910011  RH  058%=      5-min Rain = 0
KDVS 310525Z 18008KT 09/01 A3017 RMK A01 T00890011  RH  059%=      5-min Rain = 0
KDVS 310530Z 18007KT 09/01 A3017 RMK A01 T00890011  RH  059%=      5-min Rain = 0
KDVS 310535Z 18007KT 09/01 A3017 RMK A01 T00870011  RH  060%=      5-min Rain = 0
KDVS 310540Z 19007KT 09/01 A3017 RMK A01 T00880012  RH  059%=      5-min Rain = 0
KDVS 310545Z 19007KT 09/01 A3016 RMK A01 T00900012  RH  059%=      5-min Rain = 0
KDVS 310550Z 19006KT 09/01 A3016 RMK A01 T00880012  RH  060%=      5-min Rain = 0
KDVS 310555Z 19007KT 08/01 A3016 RMK A01 T00840012  RH  061%=      5-min Rain = 0
KDVS 310600Z 19008KT 08/01 A3016 RMK A01 T00830012  RH  062%=      5-min Rain = 0
KDVS 310605Z 19009KT 08/01 A3015 RMK A01 T00810011  RH  062%=      5-min Rain = 0
KDVS 310610Z 19008KT 08/01 A3015 RMK A01 T00800010  RH  062%=      5-min Rain = 0
KDVS 310615Z 19009KT 08/01 A3015 RMK A01 T00800011  RH  062%=      5-min Rain = 0
KDVS 310620Z 19009KT 08/01 A3015 RMK A01 T00800011  RH  062%=      5-min Rain = 0
KDVS 310625Z 19007KT 08/01 A3015 RMK A01 T00790011  RH  063%=      5-min Rain = 0
KDVS 310630Z 19006KT 08/01 A3015 RMK A01 T00780011  RH  064%=      5-min Rain = 0
KDVS 310635Z 19007KT 08/01 A3014 RMK A01 T00770012  RH  064%=      5-min Rain = 0
KDVS 310640Z 19007KT 08/01 A3014 RMK A01 T00780013  RH  064%=      5-min Rain = 0
KDVS 310645Z 18006KT 08/01 A3014 RMK A01 T00780013  RH  064%=      5-min Rain = 0
KDVS 310650Z 18006KT 08/01 A3014 RMK A01 T00770013  RH  064%=      5-min Rain = 0
KDVS 310655Z 18006KT 08/01 A3014 RMK A01 T00770013  RH  065%=      5-min Rain = 0
KDVS 310700Z 18005KT 08/01 A3014 RMK A01 T00750012  RH  065%=      5-min Rain = 0
KDVS 310705Z 19005KT 07/01 A3014 RMK A01 T00740013  RH  066%=      5-min Rain = 0
KDVS 310710Z 19005KT 07/01 A3014 RMK A01 T00730012  RH  066%=      5-min Rain = 0
KDVS 310715Z 19006KT 07/01 A3014 RMK A01 T00710011  RH  066%=      5-min Rain = 0
KDVS 310720Z 20007KT 07/01 A3014 RMK A01 T00690011  RH  068%=      5-min Rain = 0
KDVS 310725Z 21005KT 07/01 A3014 RMK A01 T00680011  RH  068%=      5-min Rain = 0
KDVS 310730Z 21004KT 07/01 A3014 RMK A01 T00650010  RH  069%=      5-min Rain = 0
KDVS 310735Z 22004KT 07/01 A3013 RMK A01 T00650010  RH  069%=      5-min Rain = 0
KDVS 310740Z 22004KT 06/01 A3014 RMK A01 T00630009  RH  069%=      5-min Rain = 0
KDVS 310745Z 22004KT 06/01 A3014 RMK A01 T00590008  RH  071%=      5-min Rain = 0
KDVS 310750Z 22004KT 06/01 A3014 RMK A01 T00550007  RH  072%=      5-min Rain = 0
KDVS 310755Z 22004KT 06/01 A3013 RMK A01 T00560008  RH  072%=      5-min Rain = 0
KDVS 310800Z 21004KT 06/01 A3013 RMK A01 T00580008  RH  071%=      5-min Rain = 0
KDVS 310805Z 21006KT 06/01 A3013 RMK A01 T00570007  RH  071%=      5-min Rain = 0
KDVS 310810Z 20007KT 06/01 A3013 RMK A01 T00550007  RH  072%=      5-min Rain = 0
KDVS 310815Z 20007KT 06/01 A3013 RMK A01 T00570009  RH  072%=      5-min Rain = 0
KDVS 310820Z 21007KT 06/01 A3012 RMK A01 T00550008  RH  072%=      5-min Rain = 0
KDVS 310825Z 21008KT 05/01 A3012 RMK A01 T00520007  RH  073%=      5-min Rain = 0
KDVS 310830Z 21008KT 05/01 A3012 RMK A01 T00490007  RH  075%=      5-min Rain = 0
KDVS 310835Z 21009KT 05/01 A3012 RMK A01 T00480007  RH  076%=      5-min Rain = 0
KDVS 310840Z 21009KT 05/01 A3012 RMK A01 T00480007  RH  076%=      5-min Rain = 0
KDVS 310845Z 21009KT 05/01 A3012 RMK A01 T00530010  RH  075%=      5-min Rain = 0
KDVS 310850Z 21009KT 06/01 A3012 RMK A01 T00570011  RH  073%=      5-min Rain = 0
KDVS 310855Z 21009KT 06/01 A3012 RMK A01 T00570010  RH  073%=      5-min Rain = 0
KDVS 310900Z 22008KT 06/01 A3012 RMK A01 T00560010  RH  073%=      5-min Rain = 0
KDVS 310905Z 22007KT 05/01 A3012 RMK A01 T00540010  RH  074%=      5-min Rain = 0
KDVS 310910Z 22008KT 05/01 A3012 RMK A01 T00540010  RH  075%=      5-min Rain = 0
KDVS 310915Z 21009KT 05/01 A3012 RMK A01 T00530010  RH  075%=      5-min Rain = 0
KDVS 310920Z 22009KT 05/01 A3012 RMK A01 T00540010  RH  075%=      5-min Rain = 0
KDVS 310925Z 22008KT 05/01 A3012 RMK A01 T00530010  RH  075%=      5-min Rain = 0
KDVS 310930Z 22008KT 05/01 A3012 RMK A01 T00530010  RH  075%=      5-min Rain = 0
KDVS 310935Z 22007KT 05/01 A3012 RMK A01 T00530011  RH  075%=      5-min Rain = 0
KDVS 310940Z 22007KT 06/01 A3011 RMK A01 T00550012  RH  075%=      5-min Rain = 0
KDVS 310945Z 22007KT 06/01 A3011 RMK A01 T00560012  RH  074%=      5-min Rain = 0
KDVS 310950Z 22006KT 06/01 A3011 RMK A01 T00550011  RH  075%=      5-min Rain = 0
KDVS 310955Z 22006KT 05/01 A3011 RMK A01 T00540011  RH  075%=      5-min Rain = 0
KDVS 311000Z 23006KT 05/01 A3011 RMK A01 T00540011  RH  075%=      5-min Rain = 0
KDVS 311005Z 24006KT 05/01 A3011 RMK A01 T00530011  RH  075%=      5-min Rain = 0
KDVS 311010Z 23006KT 05/01 A3011 RMK A01 T00520011  RH  076%=      5-min Rain = 0
KDVS 311015Z 23006KT 05/01 A3011 RMK A01 T00520011  RH  076%=      5-min Rain = 0
KDVS 311020Z 24005KT 05/01 A3011 RMK A01 T00500010  RH  076%=      5-min Rain = 0
KDVS 311025Z 24005KT 05/01 A3012 RMK A01 T00470008  RH  077%=      5-min Rain = 0
KDVS 311030Z 23007KT 05/01 A3012 RMK A01 T00470010  RH  078%=      5-min Rain = 0
KDVS 311035Z 23007KT 05/01 A3012 RMK A01 T00500010  RH  077%=      5-min Rain = 0
KDVS 311040Z 23008KT 05/01 A3011 RMK A01 T00510010  RH  076%=      5-min Rain = 0
KDVS 311045Z 23008KT 05/01 A3011 RMK A01 T00500009  RH  076%=      5-min Rain = 0
KDVS 311050Z 23008KT 05/01 A3011 RMK A01 T00490009  RH  076%=      5-min Rain = 0
KDVS 311055Z 23007KT 05/01 A3012 RMK A01 T00480009  RH  077%=      5-min Rain = 0
KDVS 311100Z 23007KT 05/01 A3012 RMK A01 T00470008  RH  077%=      5-min Rain = 0
KDVS 311105Z 23007KT 05/01 A3012 RMK A01 T00460009  RH  078%=      5-min Rain = 0
KDVS 311110Z 23008KT 05/01 A3012 RMK A01 T00470010  RH  078%=      5-min Rain = 0
KDVS 311115Z 23008KT 05/01 A3012 RMK A01 T00520011  RH  076%=      5-min Rain = 0
KDVS 311120Z 24008KT 05/01 A3012 RMK A01 T00540011  RH  075%=      5-min Rain = 0
KDVS 311125Z 24008KT 05/01 A3012 RMK A01 T00530011  RH  075%=      5-min Rain = 0
KDVS 311130Z 24008KT 05/01 A3013 RMK A01 T00530011  RH  075%=      5-min Rain = 0
KDVS 311135Z 24008KT 05/01 A3013 RMK A01 T00510010  RH  076%=      5-min Rain = 0
KDVS 311140Z 24008KT 05/01 A3013 RMK A01 T00490009  RH  076%=      5-min Rain = 0
KDVS 311145Z 24009KT 05/01 A3013 RMK A01 T00490010  RH  077%=      5-min Rain = 0
KDVS 311150Z 24008KT 05/01 A3013 RMK A01 T00480009  RH  077%=      5-min Rain = 0
KDVS 311155Z 24009KT 05/01 A3013 RMK A01 T00480009  RH  077%=      5-min Rain = 0
KDVS 311200Z 24010KT 05/01 A3013 RMK A01 T00490010  RH  077%=      5-min Rain = 0
KDVS 311205Z 24010KT 05/01 A3013 RMK A01 T00490009  RH  076%=      5-min Rain = 0
KDVS 311210Z 24009KT 05/01 A3013 RMK A01 T00490009  RH  076%=      5-min Rain = 0
KDVS 311215Z 24009KT 05/01 A3013 RMK A01 T00480009  RH  077%=      5-min Rain = 0
KDVS 311220Z 24009KT 05/01 A3013 RMK A01 T00480009  RH  077%=      5-min Rain = 0
KDVS 311225Z 24010KT 05/01 A3013 RMK A01 T00490009  RH  077%=      5-min Rain = 0
KDVS 311230Z 24010KT 05/01 A3013 RMK A01 T00500010  RH  076%=      5-min Rain = 0
KDVS 311235Z 24010KT 05/01 A3013 RMK A01 T00510010  RH  076%=      5-min Rain = 0
KDVS 311240Z 24010KT 05/01 A3013 RMK A01 T00520010  RH  075%=      5-min Rain = 0
KDVS 311245Z 24010KT 05/01 A3013 RMK A01 T00530010  RH  075%=      5-min Rain = 0
KDVS 311250Z 24010KT 05/01 A3013 RMK A01 T00540010  RH  074%=      5-min Rain = 0
KDVS 311255Z 24010KT 06/01 A3013 RMK A01 T00550010  RH  074%=      5-min Rain = 0
KDVS 311300Z 23009KT 06/01 A3012 RMK A01 T00560010  RH  073%=      5-min Rain = 0
KDVS 311305Z 23009KT 06/01 A3013 RMK A01 T00550010  RH  074%=      5-min Rain = 0
KDVS 311310Z 24010KT 06/01 A3013 RMK A01 T00550010  RH  074%=      5-min Rain = 0
KDVS 311315Z 24010KT 06/01 A3013 RMK A01 T00560011  RH  074%=      5-min Rain = 0
KDVS 311320Z 24009KT 06/01 A3014 RMK A01 T00570011  RH  074%=      5-min Rain = 0
KDVS 311325Z 24008KT 06/01 A3014 RMK A01 T00580012  RH  073%=      5-min Rain = 0
KDVS 311330Z 23008KT 06/01 A3014 RMK A01 T00600012  RH  072%=      5-min Rain = 0
KDVS 311335Z 23008KT 06/01 A3014 RMK A01 T00620012  RH  071%=      5-min Rain = 0
KDVS 311340Z 24008KT 06/01 A3014 RMK A01 T00630013  RH  071%=      5-min Rain = 0
KDVS 311345Z 24008KT 06/01 A3014 RMK A01 T00640013  RH  071%=      5-min Rain = 0
KDVS 311350Z 24009KT 07/01 A3014 RMK A01 T00660014  RH  070%=      5-min Rain = 0
KDVS 311355Z 25008KT 07/01 A3014 RMK A01 T00660013  RH  070%=      5-min Rain = 0
KDVS 311400Z 24009KT 07/01 A3015 RMK A01 T00670014  RH  070%=      5-min Rain = 0
KDVS 311405Z 24008KT 07/02 A3015 RMK A01 T00700015  RH  069%=      5-min Rain = 0
KDVS 311410Z 24008KT 07/02 A3015 RMK A01 T00720015  RH  068%=      5-min Rain = 0
KDVS 311415Z 24008KT 07/02 A3015 RMK A01 T00740016  RH  067%=      5-min Rain = 0
KDVS 311420Z 25009KT 08/02 A3016 RMK A01 T00760016  RH  067%=      5-min Rain = 0
KDVS 311425Z 25008KT 08/02 A3016 RMK A01 T00780017  RH  066%=      5-min Rain = 0
KDVS 311430Z 26008KT 08/02 A3016 RMK A01 T00810018  RH  065%=      5-min Rain = 0
KDVS 311435Z 26008KT 08/02 A3016 RMK A01 T00820018  RH  065%=      5-min Rain = 0
KDVS 311440Z 25008KT 09/02 A3016 RMK A01 T00870020  RH  064%=      5-min Rain = 0
KDVS 311445Z 26008KT 09/02 A3017 RMK A01 T00910020  RH  062%=      5-min Rain = 0
KDVS 311450Z 26008KT 09/02 A3017 RMK A01 T00930020  RH  061%=      5-min Rain = 0
KDVS 311455Z 25007KT 09/02 A3017 RMK A01 T00940021  RH  061%=      5-min Rain = 0
KDVS 311500Z 24008KT 10/02 A3016 RMK A01 T00980022  RH  060%=      5-min Rain = 0
KDVS 311505Z 24008KT 10/02 A3016 RMK A01 T01010022  RH  059%=      5-min Rain = 0
KDVS 311510Z 25008KT 11/02 A3017 RMK A01 T01050024  RH  058%=      5-min Rain = 0
KDVS 311515Z 24009KT 11/02 A3017 RMK A01 T01100024  RH  056%=      5-min Rain = 0
KDVS 311520Z 23009KT 11/02 A3017 RMK A01 T01140024  RH  055%=      5-min Rain = 0
KDVS 311525Z 23009KT 12/02 A3017 RMK A01 T01160024  RH  054%=      5-min Rain = 0
KDVS 311530Z 22009KT 12/03 A3017 RMK A01 T01170025  RH  054%=      5-min Rain = 0
KDVS 311535Z 24008KT 12/03 A3017 RMK A01 T01190026  RH  054%=      5-min Rain = 0
KDVS 311540Z 24008KT 13/03 A3017 RMK A01 T01250027  RH  052%=      5-min Rain = 0
KDVS 311545Z 25009KT 13/03 A3018 RMK A01 T01310027  RH  050%=      5-min Rain = 0
KDVS 311550Z 26009KT 14/03 A3018 RMK A01 T01380026  RH  048%=      5-min Rain = 0
KDVS 311555Z 25008KT 14/03 A3018 RMK A01 T01390026  RH  047%=      5-min Rain = 0
KDVS 311600Z 25009KT 14/03 A3018 RMK A01 T01420026  RH  046%=      5-min Rain = 0
KDVS 311605Z 26010KT 14/03 A3018 RMK A01 T01430026  RH  046%=      5-min Rain = 0
KDVS 311610Z 25009KT 15/03 A3017 RMK A01 T01460027  RH  045%=      5-min Rain = 0
KDVS 311615Z 26009KT 15/03 A3017 RMK A01 T01540029  RH  044%=      5-min Rain = 0
KDVS 311620Z 26009KT 16/03 A3017 RMK A01 T01610029  RH  042%=      5-min Rain = 0
KDVS 311625Z 26010KT 17/03 A3017 RMK A01 T01690029  RH  040%=      5-min Rain = 0
KDVS 311630Z 25010KT 18/03 A3017 RMK A01 T01760028  RH  038%=      5-min Rain = 0
KDVS 311635Z 25009KT 18/03 A3016 RMK A01 T01800027  RH  037%=      5-min Rain = 0
KDVS 311640Z 25010KT 19/03 A3016 RMK A01 T01850027  RH  036%=      5-min Rain = 0
KDVS 311645Z 25009KT 19/03 A3016 RMK A01 T01870028  RH  035%=      5-min Rain = 0
KDVS 311650Z 24008KT 19/03 A3016 RMK A01 T01920028  RH  034%=      5-min Rain = 0
KDVS 311655Z 25008KT 20/03 A3016 RMK A01 T02010026  RH  032%=      5-min Rain = 0
KDVS 311700Z 26009KT 20/02 A3016 RMK A01 T02030020  RH  030%=      5-min Rain = 0
KDVS 311705Z 26009KT 21/02 A3016 RMK A01 T02070016  RH  029%=      5-min Rain = 0
KDVS 311710Z 26010KT 21/01 A3016 RMK A01 T02080012  RH  027%=      5-min Rain = 0
KDVS 311715Z 26009KT 21/02 A3016 RMK A01 T02100016  RH  028%=      5-min Rain = 0
KDVS 311720Z 26010KT 21/02 A3016 RMK A01 T02120015  RH  028%=      5-min Rain = 0
KDVS 311725Z 27010G15KT 21/02 A3016 RMK A01 T02110016  RH  028%=      5-min Rain = 0
KDVS 311730Z 26010KT 22/02 A3016 RMK A01 T02160019  RH  028%=      5-min Rain = 0
KDVS 311735Z 26010KT 22/02 A3016 RMK A01 T02180017  RH  027%=      5-min Rain = 0
KDVS 311740Z 27010KT 22/01 A3016 RMK A01 T02180014  RH  026%=      5-min Rain = 0
KDVS 311745Z 27010KT 22/02 A3016 RMK A01 T02220015  RH  026%=      5-min Rain = 0
KDVS 311750Z 27010KT 23/01 A3015 RMK A01 T02250014  RH  025%=      5-min Rain = 0
KDVS 311755Z 28011KT 23/01 A3016 RMK A01 T02310013  RH  024%=      5-min Rain = 0
KDVS 311800Z 28012KT 23/02 A3015 RMK A01 T02290015  RH  025%=      5-min Rain = 0
KDVS 311805Z 28011KT 23/02 A3015 RMK A01 T02280018  RH  026%=      5-min Rain = 0
KDVS 311810Z 28009KT 23/02 A3015 RMK A01 T02320021  RH  025%=      5-min Rain = 0
KDVS 311815Z 28012G17KT 24/02 A3015 RMK A01 T02380019  RH  024%=      5-min Rain = 0
KDVS 311820Z 29013G18KT 24/01 A3015 RMK A01 T02410013  RH  023%=      5-min Rain = 0
KDVS 311825Z 29013KT 24/01 A3015 RMK A01 T02430013  RH  022%=      5-min Rain = 0
KDVS 311830Z 30015KT 25/01 A3014 RMK A01 T02490009  RH  021%=      5-min Rain = 0
KDVS 311835Z 29014KT 25/01 A3014 RMK A01 T02520006  RH  020%=      5-min Rain = 0
KDVS 311840Z 30015G20KT 25/00 A3014 RMK A01 T02540002  RH  019%=      5-min Rain = 0
KDVS 311845Z 30014G19KT 26/00 A3014 RMK A01 T02550002  RH  019%=      5-min Rain = 0
KDVS 311850Z 29015G22KT 26/00 A3013 RMK A01 T02590001  RH  019%=      5-min Rain = 0
KDVS 311855Z 30015G22KT 26/M00 A3013 RMK A01 T02591001  RH  018%=      5-min Rain = 0
KDVS 311900Z 30016G23KT 26/00 A3013 RMK A01 T026000-0  RH  018%=      5-min Rain = 0
KDVS 311905Z 28015KT 26/00 A3013 RMK A01 T02600004  RH  019%=      5-min Rain = 0
KDVS 311910Z 30017KT 26/00 A3013 RMK A01 T02610002  RH  019%=      5-min Rain = 0
KDVS 311915Z 30016KT 26/00 A3013 RMK A01 T02600003  RH  019%=      5-min Rain = 0
KDVS 311920Z 30016KT 26/M00 A3013 RMK A01 T02611003  RH  018%=      5-min Rain = 0
KDVS 311925Z 30017KT 26/00 A3013 RMK A01 T02600002  RH  019%=      5-min Rain = 0
KDVS 311930Z 31017G22KT 26/M00 A3013 RMK A01 T02601002  RH  018%=      5-min Rain = 0
KDVS 311935Z 30016KT 26/M00 A3012 RMK A01 T02611003  RH  018%=      5-min Rain = 0
KDVS 311940Z 31015G20KT 26/M00 A3012 RMK A01 T02611001  RH  018%=      5-min Rain = 0
KDVS 311945Z 29017KT 26/M00 A3012 RMK A01 T02621003  RH  018%=      5-min Rain = 0
KDVS 311950Z 29015KT 26/M00 A3012 RMK A01 T02621003  RH  018%=      5-min Rain = 0
KDVS 311955Z 30015KT 27/M00 A3012 RMK A01 T02651004  RH  017%=      5-min Rain = 0
KDVS 312000Z 30015G21KT 26/M01 A3012 RMK A01 T02641007  RH  017%=      5-min Rain = 0
KDVS 312005Z 29014KT 27/M01 A3011 RMK A01 T02661011  RH  016%=      5-min Rain = 0
KDVS 312010Z 29016G21KT 27/M02 A3011 RMK A01 T02661016  RH  016%=      5-min Rain = 0
KDVS 312015Z 29015G20KT 27/M02 A3011 RMK A01 T02671021  RH  015%=      5-min Rain = 0
KDVS 312020Z 30015G23KT 27/M02 A3011 RMK A01 T02661017  RH  016%=      5-min Rain = 0
KDVS 312025Z 29015KT 27/M02 A3011 RMK A01 T02651021  RH  015%=      5-min Rain = 0
KDVS 312030Z 30016G22KT 27/M02 A3011 RMK A01 T02671018  RH  015%=      5-min Rain = 0
KDVS 312035Z 29016G21KT 26/M02 A3011 RMK A01 T02631021  RH  015%=      5-min Rain = 0
KDVS 312040Z 28015KT 27/M02 A3012 RMK A01 T02651024  RH  015%=      5-min Rain = 0
KDVS 312045Z 29016G22KT 27/M03 A3012 RMK A01 T02651025  RH  015%=      5-min Rain = 0
KDVS 312050Z 29016G23KT 26/M02 A3011 RMK A01 T02621024  RH  015%=      5-min Rain = 0
KDVS 312055Z 31014G20KT 27/M03 A3011 RMK A01 T02661025  RH  015%=      5-min Rain = 0
KDVS 312100Z 30017KT 27/M04 A3011 RMK A01 T02691038  RH  013%=      5-min Rain = 0
KDVS 312105Z 31017KT 27/M03 A3011 RMK A01 T02681031  RH  014%=      5-min Rain = 0
KDVS 312110Z 29015KT 27/M03 A3011 RMK A01 T02681025  RH  015%=      5-min Rain = 0
KDVS 312115Z 29017G22KT 27/M03 A3011 RMK A01 T02681030  RH  014%=      5-min Rain = 0
KDVS 312120Z 30015G20KT 27/M03 A3011 RMK A01 T02691032  RH  014%=      5-min Rain = 0
KDVS 312125Z 29016G21KT 27/M03 A3011 RMK A01 T02691031  RH  014%=      5-min Rain = 0
KDVS 312130Z 29016KT 27/M03 A3012 RMK A01 T02681031  RH  014%=      5-min Rain = 0
KDVS 312135Z 31016KT 27/M03 A3012 RMK A01 T02701033  RH  014%=      5-min Rain = 0
KDVS 312140Z 30017KT 27/M03 A3012 RMK A01 T02651028  RH  014%=      5-min Rain = 0
KDVS 312145Z 30015KT 26/M03 A3012 RMK A01 T02621028  RH  015%=      5-min Rain = 0
KDVS 312150Z 32014KT 26/M03 A3012 RMK A01 T02621027  RH  015%=      5-min Rain = 0
KDVS 312155Z 30014G19KT 26/M02 A3012 RMK A01 T02611024  RH  015%=      5-min Rain = 0
KDVS 312200Z 30014KT 26/M03 A3012 RMK A01 T02601028  RH  015%=      5-min Rain = 0
KDVS 312205Z 31015G20KT 26/M03 A3012 RMK A01 T02591028  RH  015%=      5-min Rain = 0
KDVS 312210Z 32014KT 26/M03 A3013 RMK A01 T02561026  RH  016%=      5-min Rain = 0
KDVS 312215Z 32012KT 26/M02 A3013 RMK A01 T02551021  RH  016%=      5-min Rain = 0
KDVS 312220Z 32014KT 25/M01 A3013 RMK A01 T02541014  RH  017%=      5-min Rain = 0
KDVS 312225Z 31012KT 25/M01 A3013 RMK A01 T02521010  RH  018%=      5-min Rain = 0
KDVS 312230Z 30012KT 25/M01 A3013 RMK A01 T02501008  RH  018%=      5-min Rain = 0
KDVS 312235Z 30011G16KT 25/M01 A3013 RMK A01 T02491007  RH  019%=      5-min Rain = 0
KDVS 312240Z 31013G18KT 25/M01 A3014 RMK A01 T02491012  RH  018%=      5-min Rain = 0
KDVS 312245Z 31014KT 25/M01 A3014 RMK A01 T02511013  RH  018%=      5-min Rain = 0
KDVS 312250Z 31013KT 25/M01 A3014 RMK A01 T02481009  RH  018%=      5-min Rain = 0
KDVS 312255Z 31011KT 25/M01 A3014 RMK A01 T02461007  RH  019%=      5-min Rain = 0
KDVS 312300Z 31011KT 24/M01 A3014 RMK A01 T02441005  RH  019%=      5-min Rain = 0
KDVS 312305Z 30010KT 24/M00 A3014 RMK A01 T02411002  RH  020%=      5-min Rain = 0
KDVS 312310Z 31009KT 24/00 A3015 RMK A01 T02380000  RH  021%=      5-min Rain = 0
KDVS 312315Z 31008KT 24/00 A3014 RMK A01 T02360002  RH  022%=      5-min Rain = 0
KDVS 312320Z 31008KT 23/01 A3015 RMK A01 T02330005  RH  022%=      5-min Rain = 0
KDVS 312325Z 31007KT 23/01 A3015 RMK A01 T02300007  RH  023%=      5-min Rain = 0
KDVS 312330Z 31007KT 23/01 A3015 RMK A01 T02300008  RH  023%=      5-min Rain = 0
KDVS 312335Z 31006KT 23/01 A3015 RMK A01 T02300009  RH  024%=      5-min Rain = 0
KDVS 312340Z 31006KT 23/01 A3015 RMK A01 T02290009  RH  024%=      5-min Rain = 0
KDVS 312345Z 31006KT 23/01 A3015 RMK A01 T02260010  RH  024%=      5-min Rain = 0
KDVS 312350Z 30006KT 22/01 A3015 RMK A01 T02180011  RH  026%=      5-min Rain = 0
KDVS 312355Z 29007KT 21/01 A3016 RMK A01 T02090013  RH  028%=      5-min Rain = 0
KDVS 010000Z 29005KT 20/01 A3016 RMK A01 T02020014  RH  029%=      5-min Rain = 0
KDVS 010005Z 33005KT 20/01 A3016 RMK A01 T01990014  RH  029%=      5-min Rain = 0
KDVS 010010Z 33005KT 21/01 A3016 RMK A01 T02060013  RH  028%=      5-min Rain = 0
KDVS 010015Z 33005KT 20/01 A3016 RMK A01 T02020014  RH  029%=      5-min Rain = 0
KDVS 010020Z 34006KT 20/01 A3017 RMK A01 T02000013  RH  029%=      5-min Rain = 0
KDVS 010025Z 34005KT 20/01 A3017 RMK A01 T02010013  RH  029%=      5-min Rain = 0
KDVS 010030Z 34006KT 20/01 A3018 RMK A01 T01980012  RH  029%=      5-min Rain = 0
KDVS 010035Z 34006KT 20/01 A3018 RMK A01 T01960012  RH  030%=      5-min Rain = 0
KDVS 010040Z 35006KT 19/01 A3019 RMK A01 T01900013  RH  031%=      5-min Rain = 0
KDVS 010045Z 35006KT 19/01 A3019 RMK A01 T01880011  RH  031%=      5-min Rain = 0
KDVS 010050Z 35006KT 19/01 A302 RMK A01 T01870010  RH  031%=      5-min Rain = 0
KDVS 010055Z 34006KT 18/01 A302 RMK A01 T01830009  RH  031%=      5-min Rain = 0
KDVS 010100Z 35006KT 18/01 A302 RMK A01 T01760010  RH  033%=      5-min Rain = 0
KDVS 010105Z 35007KT 17/01 A3021 RMK A01 T01720009  RH  034%=      5-min Rain = 0
KDVS 010110Z 35008KT 17/01 A3021 RMK A01 T01720008  RH  033%=      5-min Rain = 0
KDVS 010115Z 35007KT 17/01 A3021 RMK A01 T01710007  RH  034%=      5-min Rain = 0
KDVS 010120Z 35007KT 17/01 A3022 RMK A01 T01670007  RH  034%=      5-min Rain = 0
KDVS 010125Z 34007KT 16/01 A3022 RMK A01 T01630007  RH  035%=      5-min Rain = 0
KDVS 010130Z 35007KT 16/01 A3022 RMK A01 T01600007  RH  036%=      5-min Rain = 0
KDVS 010135Z 34007KT 16/01 A3023 RMK A01 T01590006  RH  036%=      5-min Rain = 0
KDVS 010140Z 35007KT 16/01 A3023 RMK A01 T01580006  RH  036%=      5-min Rain = 0
KDVS 010145Z 35006KT 15/01 A3023 RMK A01 T01480008  RH  039%=      5-min Rain = 0
KDVS 010150Z 36008KT 15/01 A3024 RMK A01 T01490007  RH  038%=      5-min Rain = 0
KDVS 010155Z 00008KT 15/01 A3024 RMK A01 T01460007  RH  039%=      5-min Rain = 0
KDVS 010200Z 01008KT 14/01 A3025 RMK A01 T01390008  RH  041%=      5-min Rain = 0
KDVS 010205Z 01008KT 13/01 A3025 RMK A01 T01340008  RH  043%=      5-min Rain = 0
KDVS 010210Z 01009KT 13/01 A3025 RMK A01 T01330007  RH  043%=      5-min Rain = 0
KDVS 010215Z 00009KT 14/01 A3026 RMK A01 T01370006  RH  041%=      5-min Rain = 0
KDVS 010220Z 00008KT 14/01 A3026 RMK A01 T01400006  RH  040%=      5-min Rain = 0
KDVS 010225Z 01008KT 14/01 A3027 RMK A01 T01380007  RH  041%=      5-min Rain = 0
KDVS 010230Z 01009KT 13/01 A3027 RMK A01 T01340007  RH  042%=      5-min Rain = 0
KDVS 010235Z 01009KT 13/01 A3027 RMK A01 T01310008  RH  044%=      5-min Rain = 0
KDVS 010240Z 02011G17KT 13/01 A3027 RMK A01 T01330007  RH  043%=      5-min Rain = 0
KDVS 010245Z 03012KT 15/01 A3028 RMK A01 T01470005  RH  038%=      5-min Rain = 0
KDVS 010250Z 03011KT 16/01 A3028 RMK A01 T01560008  RH  037%=      5-min Rain = 0
KDVS 010255Z 03011KT 16/01 A3028 RMK A01 T01570011  RH  037%=      5-min Rain = 0
KDVS 010300Z 03012KT 16/01 A3028 RMK A01 T01550013  RH  039%=      5-min Rain = 0
KDVS 010305Z 04011KT 15/02 A3029 RMK A01 T01540015  RH  040%=      5-min Rain = 0
KDVS 010310Z 04011KT 15/02 A3029 RMK A01 T01510017  RH  041%=      5-min Rain = 0
KDVS 010315Z 04011G16KT 15/02 A3029 RMK A01 T01510021  RH  042%=      5-min Rain = 0
KDVS 010320Z 04012KT 15/02 A3029 RMK A01 T01530024  RH  043%=      5-min Rain = 0
KDVS 010325Z 04013KT 15/03 A303 RMK A01 T01530026  RH  043%=      5-min Rain = 0
KDVS 010330Z 04012KT 15/03 A303 RMK A01 T01520027  RH  044%=      5-min Rain = 0
KDVS 010335Z 04012KT 15/03 A303 RMK A01 T01530029  RH  044%=      5-min Rain = 0
KDVS 010340Z 04012KT 15/03 A3031 RMK A01 T01520029  RH  044%=      5-min Rain = 0
KDVS 010345Z 04011KT 15/03 A3031 RMK A01 T01500030  RH  045%=      5-min Rain = 0
KDVS 010350Z 04011KT 15/03 A3031 RMK A01 T01480030  RH  046%=      5-min Rain = 0
KDVS 010355Z 04011KT 15/03 A3032 RMK A01 T01470030  RH  046%=      5-min Rain = 0
KDVS 010400Z 04011KT 15/03 A3032 RMK A01 T01460031  RH  047%=      5-min Rain = 0
KDVS 010405Z 04011KT 15/03 A3032 RMK A01 T01450031  RH  047%=      5-min Rain = 0
KDVS 010410Z 04010KT 14/03 A3033 RMK A01 T01430031  RH  047%=      5-min Rain = 0
KDVS 010415Z 04010G15KT 14/03 A3033 RMK A01 T01420031  RH  048%=      5-min Rain = 0
KDVS 010420Z 04009KT 14/03 A3033 RMK A01 T01400031  RH  048%=      5-min Rain = 0
KDVS 010425Z 04008KT 14/03 A3034 RMK A01 T01380031  RH  049%=      5-min Rain = 0
KDVS 010430Z 04008KT 14/03 A3034 RMK A01 T01350031  RH  050%=      5-min Rain = 0
KDVS 010435Z 04007KT 13/03 A3034 RMK A01 T01340031  RH  051%=      5-min Rain = 0
KDVS 010440Z 04008KT 13/03 A3035 RMK A01 T01320031  RH  051%=      5-min Rain = 0
KDVS 010445Z 04008KT 13/03 A3035 RMK A01 T01320032  RH  051%=      5-min Rain = 0
KDVS 010450Z 05008KT 13/03 A3035 RMK A01 T01320032  RH  051%=      5-min Rain = 0
KDVS 010455Z 04009KT 13/03 A3035 RMK A01 T01330032  RH  051%=      5-min Rain = 0

Page generated in 0.0106 seconds.